Accueil
METAR-TAF:

METAR-TAF

Aéroports :

Aéroport João Paulo II

Ponta Delgada, Açores, Portugal

latitude: 37-44N, longitude: 025-42W, altitude: 71 m

Observation

Le bulletin a été fait il y a 43 minutes, à 02:30 UTC
Vent 12 kt de nord/nord-est
Température 21°C
Humidité 78%
Pression 1022 hPa
Visibilité 10 km ou plus
Quelques nuages à une hauteur de 1800 ft

METAR: LPPD 110230Z 02012KT 9999 FEW018 21/17 Q1022

Heure: 03:13 (03:13 UTC)

Prévision

Le bulletin a été fait il y a 4 heures et 13 minutes, à 23:00 UTC
Prévision valable du 11 à 00 UTC au 11 à 24 UTC
Vent 10 kt de nord/nord-est
Visibilité 10 km ou plus
Nuages épars à une hauteur de 1800 ft
Temporairement
du 11 à 00 UTC au 11 à 24 UTC
Nuages épars à une hauteur de 1500 ft
Nuages fragmentés à une hauteur de 3000 ft

TAF: LPPD 102300Z 1100/1124 03010KT 9999 SCT018 TEMPO 1100/1124 SCT015 BKN030

Observations et prévisions météorologiques de plus de 4000 aéroports (messages METAR et TAF).

Les stations disponibles sont représentées par des disques jaunes et rouges sur la carte.

Passer la souris dessus pour voir le nom de la station.

Cliquer dessus pour voir les observations et prévisions météorologiques.

Pour changer de carte: cliquez sur les boutons verts avec une croix noire pour zoomer, sur le bouton vert avec un tiret pour effectuer un zoom arrière, ou sur les flèches vertes pour les cartes adjacentes.


METAR-TAF: